createdAt,value
2019-02-26T00:01:26.054Z,10.03
2019-02-26T00:04:06.950Z,5.60
2019-02-26T00:06:49.256Z,10.57
2019-02-26T00:09:35.095Z,7.30
2019-02-26T00:12:19.957Z,8.13
2019-02-26T00:15:02.057Z,6.93
2019-02-26T00:17:45.883Z,10.77
2019-02-26T00:20:26.914Z,9.77
2019-02-26T00:23:09.470Z,7.07
2019-02-26T00:25:51.601Z,7.57
2019-02-26T00:28:34.649Z,10.27
2019-02-26T00:34:50.681Z,10.90
2019-02-26T00:37:32.982Z,9.80
2019-02-26T00:40:17.159Z,12.30
2019-02-26T00:43:00.313Z,8.40
2019-02-26T00:45:42.129Z,9.40
2019-02-26T00:48:24.245Z,7.63
2019-02-26T00:51:05.718Z,9.70
2019-02-26T00:53:50.812Z,9.37
2019-02-26T00:56:31.623Z,8.87
2019-02-26T00:59:14.839Z,7.63
2019-02-26T01:01:56.997Z,11.87
2019-02-26T01:04:41.453Z,13.47
2019-02-26T01:07:24.359Z,11.47
2019-02-26T01:13:07.274Z,7.57
2019-02-26T01:15:49.077Z,9.57
2019-02-26T01:18:31.525Z,8.93
2019-02-26T01:21:13.490Z,9.53
2019-02-26T01:23:56.618Z,8.53
2019-02-26T01:26:42.658Z,9.73
2019-02-26T01:29:25.878Z,8.53
2019-02-26T01:32:10.979Z,6.87
2019-02-26T01:34:51.807Z,12.50
2019-02-26T01:37:36.162Z,8.53
2019-02-26T01:40:20.625Z,10.20
2019-02-26T01:43:03.138Z,6.87
2019-02-26T01:45:46.273Z,8.13
2019-02-26T01:48:29.921Z,8.57
2019-02-26T01:51:12.750Z,6.93
2019-02-26T01:53:54.799Z,15.70
2019-02-26T01:56:37.036Z,8.30
2019-02-26T01:59:19.347Z,7.43
2019-02-26T02:02:01.536Z,9.67
2019-02-26T02:04:43.571Z,10.53
2019-02-26T02:07:27.797Z,12.97
2019-02-26T02:10:09.493Z,9.63
2019-02-26T02:12:55.211Z,19.27
2019-02-26T02:15:36.184Z,9.20
2019-02-26T02:18:22.451Z,10.93
2019-02-26T02:21:02.959Z,6.47
2019-02-26T02:23:46.532Z,9.20
2019-02-26T02:26:28.741Z,11.77
2019-02-26T02:29:12.773Z,12.63
2019-02-26T02:31:55.674Z,7.83
2019-02-26T02:34:39.972Z,6.23
2019-02-26T02:37:24.721Z,12.63
2019-02-26T02:40:06.273Z,10.53
2019-02-26T02:42:49.140Z,17.00
2019-02-26T02:45:31.321Z,18.57
2019-02-26T02:48:14.192Z,11.50
2019-02-26T02:50:56.558Z,15.30
2019-02-26T02:53:39.071Z,13.87
2019-02-26T02:56:21.305Z,11.70
2019-02-26T02:59:05.965Z,15.13
2019-02-26T03:01:49.584Z,10.27
2019-02-26T03:04:34.584Z,11.17
2019-02-26T03:07:17.729Z,18.80
2019-02-26T03:10:03.963Z,11.17
2019-02-26T03:12:47.899Z,12.07
2019-02-26T03:15:30.044Z,13.83
2019-02-26T03:18:12.575Z,24.93
2019-02-26T03:20:56.812Z,10.70
2019-02-26T03:23:41.235Z,11.73
2019-02-26T03:26:14.681Z,10.60
2019-02-26T03:29:14.022Z,9.77
2019-02-26T03:31:56.183Z,16.03
2019-02-26T03:34:38.178Z,14.73
2019-02-26T03:37:20.540Z,10.93
2019-02-26T03:40:03.687Z,10.93
2019-02-26T03:42:46.260Z,12.13
2019-02-26T03:45:28.392Z,13.27
2019-02-26T03:48:10.822Z,11.83
2019-02-26T03:50:53.105Z,16.27
2019-02-26T03:53:36.429Z,13.23
2019-02-26T03:56:20.511Z,15.87
2019-02-26T03:59:05.727Z,13.90
2019-02-26T04:01:46.731Z,13.30
2019-02-26T04:04:30.964Z,13.57
2019-02-26T04:07:12.223Z,10.10
2019-02-26T04:09:55.943Z,9.13
2019-02-26T04:12:41.832Z,10.60
2019-02-26T04:18:20.723Z,9.67
2019-02-26T04:21:05.664Z,7.33
2019-02-26T04:23:46.690Z,6.00
2019-02-26T04:26:31.056Z,7.90
2019-02-26T04:29:12.534Z,7.43
2019-02-26T04:31:57.592Z,7.47
2019-02-26T04:34:38.885Z,9.40
2019-02-26T04:37:20.967Z,7.77
2019-02-26T04:40:07.116Z,6.00
2019-02-26T04:42:46.908Z,12.17
2019-02-26T04:45:28.810Z,8.67
2019-02-26T04:48:14.680Z,11.27
2019-02-26T04:50:54.132Z,10.20
2019-02-26T04:53:36.452Z,12.33
2019-02-26T04:56:18.943Z,11.10
2019-02-26T04:59:03.559Z,13.17
2019-02-26T05:01:47.224Z,12.57
2019-02-26T05:04:30.179Z,13.40
2019-02-26T05:07:14.015Z,14.77
2019-02-26T05:09:58.811Z,13.80
2019-02-26T05:12:40.261Z,14.87
2019-02-26T05:15:23.312Z,10.77
2019-02-26T05:18:05.170Z,13.07
2019-02-26T05:20:48.419Z,17.03
2019-02-26T05:23:33.405Z,15.77
2019-02-26T05:26:15.326Z,11.00
2019-02-26T05:28:57.995Z,15.33
2019-02-26T05:31:40.870Z,14.63
2019-02-26T05:34:25.857Z,18.37
2019-02-26T05:37:08.824Z,15.60
2019-02-26T05:39:54.584Z,14.40
2019-02-26T05:42:35.810Z,14.27
2019-02-26T05:45:18.033Z,11.60
2019-02-26T05:47:50.744Z,10.83
2019-02-26T05:51:00.836Z,13.23
2019-02-26T05:54:14.256Z,16.63
2019-02-26T05:57:31.254Z,10.70
2019-02-26T06:00:33.177Z,14.40
2019-02-26T06:03:41.633Z,14.60
2019-02-26T06:06:55.527Z,14.00
2019-02-26T06:10:01.793Z,13.97
2019-02-26T06:12:51.159Z,12.07
2019-02-26T06:15:40.501Z,17.27
2019-02-26T06:18:29.473Z,16.50
2019-02-26T06:21:20.864Z,16.90
2019-02-26T06:24:30.396Z,14.50
2019-02-26T06:27:39.884Z,14.17
2019-02-26T06:30:21.942Z,16.13
2019-02-26T06:33:06.538Z,19.83
2019-02-26T06:35:48.390Z,20.13
2019-02-26T06:38:32.198Z,17.93
2019-02-26T06:41:13.745Z,19.23
2019-02-26T06:43:55.273Z,19.03
2019-02-26T06:46:38.320Z,14.77
2019-02-26T06:49:22.339Z,18.60
2019-02-26T06:52:05.729Z,17.13
2019-02-26T06:54:50.574Z,12.97
2019-02-26T06:57:31.676Z,16.47
2019-02-26T07:00:13.235Z,17.83
2019-02-26T07:02:55.483Z,25.53
2019-02-26T07:05:37.482Z,22.97
2019-02-26T07:08:21.166Z,22.53
2019-02-26T07:11:03.920Z,20.67
2019-02-26T07:13:46.472Z,23.33
2019-02-26T07:16:28.266Z,19.93
2019-02-26T07:19:12.265Z,18.93
2019-02-26T07:21:54.072Z,15.37
2019-02-26T07:24:38.420Z,19.87
2019-02-26T07:27:20.114Z,17.20
2019-02-26T07:30:02.141Z,14.07
2019-02-26T07:32:46.156Z,15.27
2019-02-26T07:35:30.649Z,12.47
2019-02-26T07:41:12.150Z,17.33
2019-02-26T07:43:54.745Z,17.47
2019-02-26T07:46:38.505Z,14.33
2019-02-26T07:49:21.153Z,18.77
2019-02-26T07:52:05.867Z,14.83
2019-02-26T07:54:51.855Z,15.77
2019-02-26T07:57:35.878Z,19.80
2019-02-26T08:00:17.881Z,17.07
2019-02-26T08:03:01.969Z,17.63
2019-02-26T08:05:43.336Z,13.73
2019-02-26T08:08:25.355Z,17.90
2019-02-26T08:11:07.641Z,18.70
2019-02-26T08:13:51.599Z,20.00
2019-02-26T08:23:01.872Z,16.83
2019-02-26T08:25:44.144Z,22.20
2019-02-26T08:28:25.884Z,18.60
2019-02-26T08:33:51.727Z,20.53
2019-02-26T08:36:33.737Z,16.23
2019-02-26T08:39:16.980Z,15.63
2019-02-26T08:41:59.258Z,19.80
2019-02-26T08:44:40.956Z,14.83
2019-02-26T08:47:23.385Z,13.20
2019-02-26T08:50:14.878Z,17.80
2019-02-26T08:53:04.456Z,15.00
2019-02-26T08:55:56.112Z,14.50
2019-02-26T08:59:04.518Z,15.23
2019-02-26T09:01:53.879Z,21.67
2019-02-26T09:04:45.066Z,20.23
2019-02-26T09:07:53.678Z,16.67
2019-02-26T09:10:43.729Z,17.93
2019-02-26T09:13:53.546Z,19.03
2019-02-26T09:16:25.674Z,17.00
2019-02-26T09:19:35.447Z,20.53
2019-02-26T09:22:26.616Z,14.20
2019-02-26T09:25:36.350Z,13.60
2019-02-26T09:28:27.083Z,14.40
2019-02-26T09:31:29.286Z,18.33
2019-02-26T09:34:11.156Z,15.60
2019-02-26T09:36:55.550Z,17.60
2019-02-26T09:39:39.053Z,16.83
2019-02-26T09:42:23.237Z,16.17
2019-02-26T09:45:05.350Z,19.60
2019-02-26T09:47:49.612Z,19.57
2019-02-26T09:50:31.706Z,19.13
2019-02-26T09:53:13.709Z,16.63
2019-02-26T09:55:55.744Z,18.97
2019-02-26T09:58:39.827Z,15.30
2019-02-26T10:01:20.989Z,15.93
2019-02-26T10:04:05.000Z,14.30
2019-02-26T10:06:47.507Z,17.13
2019-02-26T10:09:29.757Z,17.07
2019-02-26T10:12:15.108Z,19.27
2019-02-26T10:14:59.482Z,15.23
2019-02-26T10:17:40.819Z,19.37
2019-02-26T10:20:25.449Z,15.83
2019-02-26T10:23:06.504Z,17.13
2019-02-26T10:25:52.988Z,16.87
2019-02-26T10:28:35.224Z,18.80
2019-02-26T10:31:16.010Z,17.93
2019-02-26T10:33:58.002Z,18.73
2019-02-26T10:36:43.360Z,15.70
2019-02-26T10:39:25.548Z,15.87
2019-02-26T10:42:06.715Z,21.70
2019-02-26T10:44:48.608Z,17.20
2019-02-26T10:50:15.659Z,15.27
2019-02-26T10:52:45.145Z,23.77
2019-02-26T10:55:38.633Z,16.97
2019-02-26T10:58:45.031Z,19.27
2019-02-26T11:01:35.431Z,17.33
2019-02-26T11:04:46.900Z,18.87
2019-02-26T11:07:58.769Z,26.27
2019-02-26T11:10:49.605Z,22.97
2019-02-26T11:13:57.569Z,20.10
2019-02-26T11:16:47.076Z,19.10
2019-02-26T11:19:38.920Z,15.97
2019-02-26T11:22:28.190Z,17.40
2019-02-26T11:25:18.455Z,18.83
2019-02-26T11:28:32.668Z,15.60
2019-02-26T11:31:31.269Z,18.80
2019-02-26T11:34:14.176Z,17.40
2019-02-26T11:36:56.539Z,17.87
2019-02-26T11:39:39.873Z,20.30
2019-02-26T11:42:23.766Z,15.43
2019-02-26T11:45:08.882Z,13.57
2019-02-26T11:47:49.139Z,17.43
2019-02-26T11:50:31.149Z,15.63
2019-02-26T11:53:13.062Z,19.63
2019-02-26T11:55:43.440Z,13.63
2019-02-26T11:58:16.036Z,15.77
2019-02-26T12:01:24.238Z,16.03
2019-02-26T12:03:56.179Z,14.00
2019-02-26T12:07:07.459Z,13.50
2019-02-26T12:09:57.949Z,8.83
2019-02-26T12:13:07.600Z,8.50
2019-02-26T12:15:56.943Z,10.63
2019-02-26T12:18:27.259Z,13.13
2019-02-26T12:21:16.622Z,10.83
2019-02-26T12:24:08.919Z,11.03
2019-02-26T12:27:18.269Z,8.70
2019-02-26T12:30:20.700Z,12.63
2019-02-26T12:32:54.455Z,12.37
2019-02-26T12:36:02.585Z,13.00
2019-02-26T12:39:12.184Z,10.77
2019-02-26T12:42:01.580Z,10.53
2019-02-26T12:44:50.961Z,9.67
2019-02-26T12:47:41.155Z,12.60
2019-02-26T12:50:52.086Z,13.60
2019-02-26T12:54:03.435Z,11.50
2019-02-26T12:57:11.877Z,11.70
2019-02-26T13:00:01.257Z,13.97
2019-02-26T13:02:52.364Z,13.87
2019-02-26T13:06:01.138Z,13.03
2019-02-26T13:08:50.790Z,12.13
2019-02-26T13:12:02.776Z,16.27
2019-02-26T13:15:12.469Z,9.90
2019-02-26T13:18:01.793Z,13.30
2019-02-26T13:24:11.528Z,10.00
2019-02-26T13:27:12.228Z,9.73
2019-02-26T13:29:56.971Z,12.33
2019-02-26T13:32:55.259Z,9.57
2019-02-26T13:35:20.458Z,7.10
2019-02-26T13:38:02.396Z,9.10
2019-02-26T13:40:44.485Z,9.13
2019-02-26T13:43:26.580Z,11.97
2019-02-26T13:46:08.183Z,8.43
2019-02-26T13:48:50.578Z,7.83
2019-02-26T13:51:20.939Z,10.20
2019-02-26T13:53:51.225Z,8.27
2019-02-26T13:56:40.595Z,7.90
2019-02-26T13:59:29.965Z,9.63
2019-02-26T14:05:18.856Z,12.40
2019-02-26T14:07:49.421Z,8.83
2019-02-26T14:10:38.744Z,8.93
2019-02-26T14:13:28.165Z,7.43
2019-02-26T14:16:17.502Z,9.13
2019-02-26T14:19:06.931Z,7.70
2019-02-26T14:21:37.330Z,7.97
2019-02-26T14:24:26.646Z,8.80
2019-02-26T14:27:16.073Z,10.43
2019-02-26T14:29:58.028Z,8.97
2019-02-26T14:32:40.326Z,9.03
2019-02-26T14:35:22.230Z,9.67
2019-02-26T14:38:04.170Z,10.80
2019-02-26T14:40:46.238Z,11.93
2019-02-26T14:43:28.371Z,10.93
2019-02-26T14:46:10.433Z,9.60
2019-02-26T14:48:52.610Z,9.83
2019-02-26T14:51:34.541Z,9.60
2019-02-26T14:54:16.340Z,11.43
2019-02-26T14:56:58.430Z,9.47
2019-02-26T15:02:23.386Z,10.67
2019-02-26T15:04:53.691Z,11.80
2019-02-26T15:07:43.077Z,8.00
2019-02-26T15:10:32.374Z,11.03
2019-02-26T15:13:21.742Z,15.07
2019-02-26T15:16:11.088Z,8.40
2019-02-26T15:19:00.442Z,10.07
2019-02-26T15:21:49.797Z,8.63
2019-02-26T15:24:39.165Z,9.20
2019-02-26T15:27:35.945Z,7.83
2019-02-26T15:30:39.073Z,7.87
2019-02-26T15:33:28.341Z,8.93
2019-02-26T15:36:17.723Z,7.33
2019-02-26T15:39:07.253Z,10.63
2019-02-26T15:41:56.552Z,8.67
2019-02-26T15:45:08.641Z,7.73
2019-02-26T15:47:58.047Z,7.10
2019-02-26T15:50:47.440Z,10.63
2019-02-26T15:53:29.646Z,8.90
2019-02-26T15:56:12.135Z,6.80
2019-02-26T15:58:54.097Z,10.00
2019-02-26T16:01:36.122Z,14.20
2019-02-26T16:04:18.521Z,10.43
2019-02-26T16:06:48.934Z,10.43
2019-02-26T16:09:38.290Z,11.67
2019-02-26T16:15:42.152Z,13.37
2019-02-26T16:18:31.521Z,12.93
2019-02-26T16:21:21.117Z,11.07
2019-02-26T16:24:03.233Z,16.17
2019-02-26T16:26:44.777Z,16.33
2019-02-26T16:29:27.292Z,14.17
2019-02-26T16:32:09.460Z,12.60
2019-02-26T16:34:52.496Z,21.90
2019-02-26T16:37:38.769Z,15.33
2019-02-26T16:40:20.128Z,13.58
2019-02-26T16:43:02.137Z,15.87
2019-02-26T16:45:44.191Z,16.23
2019-02-26T16:48:26.577Z,16.97
2019-02-26T16:51:08.764Z,15.40
2019-02-26T16:53:50.716Z,20.57
2019-02-26T16:56:32.990Z,19.73
2019-02-26T16:59:07.348Z,16.60
2019-02-26T17:01:54.969Z,19.07
2019-02-26T17:05:05.546Z,13.77
2019-02-26T17:07:55.218Z,17.73
2019-02-26T17:10:44.599Z,18.47
2019-02-26T17:13:34.037Z,20.57
2019-02-26T17:16:04.464Z,14.50
2019-02-26T17:18:56.008Z,17.60
2019-02-26T17:21:30.538Z,11.27
2019-02-26T17:24:29.632Z,15.43
2019-02-26T17:27:11.467Z,21.53
2019-02-26T17:33:27.107Z,17.20
2019-02-26T17:36:09.131Z,14.83
2019-02-26T17:38:51.794Z,13.87
2019-02-26T17:41:22.571Z,17.63
2019-02-26T17:44:11.944Z,12.30
2019-02-26T17:47:01.394Z,16.53
2019-02-26T17:49:50.858Z,17.23
2019-02-26T17:52:21.171Z,17.57
2019-02-26T17:55:10.602Z,18.80
2019-02-26T17:58:21.080Z,19.23
2019-02-26T18:01:11.121Z,14.60
2019-02-26T18:04:33.276Z,14.13
2019-02-26T18:07:12.436Z,20.60
2019-02-26T18:10:01.950Z,22.07
2019-02-26T18:12:51.366Z,16.63
2019-02-26T18:15:40.840Z,16.13
2019-02-26T18:18:22.732Z,20.50
2019-02-26T18:21:05.939Z,15.60
2019-02-26T18:23:48.747Z,14.37
2019-02-26T18:26:30.791Z,17.67
2019-02-26T18:29:12.785Z,20.47
2019-02-26T18:31:55.111Z,13.83
2019-02-26T18:37:36.681Z,16.10
2019-02-26T18:40:18.679Z,14.37
2019-02-26T18:43:00.471Z,14.87
2019-02-26T18:45:42.969Z,16.60
2019-02-26T18:48:24.648Z,15.97
2019-02-26T18:51:06.521Z,16.00
2019-02-26T18:53:48.366Z,17.63
2019-02-26T18:56:30.473Z,12.93
2019-02-26T18:59:12.317Z,17.63
2019-02-26T19:01:54.126Z,17.00
2019-02-26T19:04:24.537Z,14.70
2019-02-26T19:07:14.054Z,13.67
2019-02-26T19:10:03.573Z,15.67
2019-02-26T19:12:46.261Z,12.40
2019-02-26T19:15:28.289Z,12.80
2019-02-26T19:18:11.057Z,16.97
2019-02-26T19:20:52.975Z,15.70
2019-02-26T19:23:34.653Z,15.90
2019-02-26T19:26:16.922Z,12.53
2019-02-26T19:28:59.078Z,14.33
2019-02-26T19:31:42.817Z,15.73
2019-02-26T19:34:28.119Z,13.57
2019-02-26T19:37:09.199Z,15.70
2019-02-26T19:39:51.205Z,12.87
2019-02-26T19:42:33.117Z,13.10
2019-02-26T19:45:15.113Z,10.73
2019-02-26T19:47:57.218Z,11.87
2019-02-26T19:50:39.246Z,10.63
2019-02-26T19:53:21.331Z,15.00
2019-02-26T19:56:03.546Z,14.60
2019-02-26T19:58:45.261Z,13.00
2019-02-26T20:01:27.444Z,12.33
2019-02-26T20:04:09.553Z,14.13
2019-02-26T20:06:51.977Z,14.27
2019-02-26T20:13:12.579Z,15.50
2019-02-26T20:15:54.647Z,11.57
2019-02-26T20:18:36.566Z,13.97
2019-02-26T20:24:39.630Z,12.27
2019-02-26T20:27:29.015Z,10.57
2019-02-26T20:30:18.614Z,13.70
2019-02-26T20:33:07.967Z,12.23
2019-02-26T20:35:57.394Z,15.27
2019-02-26T20:39:07.681Z,12.17
2019-02-26T20:42:16.056Z,16.03
2019-02-26T20:45:05.688Z,11.67
2019-02-26T20:47:55.090Z,11.33
2019-02-26T20:50:43.912Z,13.20
2019-02-26T20:53:33.165Z,9.70
2019-02-26T20:56:23.482Z,12.10
2019-02-26T20:59:32.566Z,13.27
2019-02-26T21:02:22.082Z,12.03
2019-02-26T21:05:11.662Z,11.93
2019-02-26T21:08:01.063Z,10.77
2019-02-26T21:10:50.497Z,17.27
2019-02-26T21:13:34.668Z,18.27
2019-02-26T21:16:15.914Z,15.87
2019-02-26T21:18:58.012Z,14.37
2019-02-26T21:21:40.332Z,15.47
2019-02-26T21:24:22.519Z,10.03
2019-02-26T21:27:04.499Z,10.33
2019-02-26T21:29:46.810Z,12.93
2019-02-26T21:32:29.021Z,14.18
2019-02-26T21:35:11.008Z,17.67
2019-02-26T21:37:53.073Z,14.40
2019-02-26T21:40:37.231Z,13.70
2019-02-26T21:43:18.984Z,15.00
2019-02-26T21:46:01.359Z,13.73
2019-02-26T21:48:43.584Z,12.90
2019-02-26T21:51:25.672Z,17.20
2019-02-26T21:54:07.537Z,11.57
2019-02-26T21:56:49.510Z,11.27
2019-02-26T21:59:32.808Z,11.37
2019-02-26T22:02:18.567Z,14.07
2019-02-26T22:04:59.240Z,16.13
2019-02-26T22:07:40.782Z,15.80
2019-02-26T22:10:23.235Z,14.50
2019-02-26T22:13:05.449Z,14.57
2019-02-26T22:15:47.285Z,12.87
2019-02-26T22:18:33.996Z,13.80
2019-02-26T22:21:13.620Z,14.17
2019-02-26T22:23:55.754Z,17.03
2019-02-26T22:26:37.849Z,20.87
2019-02-26T22:35:52.567Z,13.30
2019-02-26T22:38:34.778Z,12.97
2019-02-26T22:41:16.831Z,13.70
2019-02-26T22:43:59.102Z,11.70
2019-02-26T22:46:41.291Z,11.80
2019-02-26T22:52:22.694Z,17.23
2019-02-26T22:55:05.785Z,12.33
2019-02-26T22:57:47.549Z,16.27
2019-02-26T23:00:35.069Z,12.07
2019-02-26T23:03:17.698Z,11.23
2019-02-26T23:05:48.041Z,13.93
2019-02-26T23:08:18.449Z,10.73
2019-02-26T23:11:08.337Z,13.50
2019-02-26T23:13:50.201Z,13.77
2019-02-26T23:16:32.941Z,12.60
2019-02-26T23:19:15.513Z,22.03
2019-02-26T23:21:57.570Z,14.40
2019-02-26T23:24:40.250Z,21.10
2019-02-26T23:27:22.504Z,12.10
2019-02-26T23:30:05.632Z,12.60
2019-02-26T23:32:36.576Z,16.30
2019-02-26T23:35:46.557Z,15.27
2019-02-26T23:38:36.008Z,16.57
2019-02-26T23:41:25.380Z,15.47
2019-02-26T23:44:17.780Z,15.70
2019-02-26T23:47:25.265Z,13.27
2019-02-26T23:50:14.641Z,16.70
2019-02-26T23:53:04.045Z,16.10
2019-02-26T23:55:53.356Z,11.50
2019-02-26T23:58:42.741Z,15.40
